sensor_id;sensor_type;location;lat;lon;timestamp;temperature;humidity
20442;DHT22;10380;52.102;20.614;2023-12-28T00:02:12;1.30;99.90
20442;DHT22;10380;52.102;20.614;2023-12-28T00:04:40;1.40;99.90
20442;DHT22;10380;52.102;20.614;2023-12-28T00:07:07;1.30;99.90
20442;DHT22;10380;52.102;20.614;2023-12-28T00:09:34;1.30;99.90
20442;DHT22;10380;52.102;20.614;2023-12-28T00:12:01;1.30;99.90
20442;DHT22;10380;52.102;20.614;2023-12-28T00:14:28;1.30;99.90
20442;DHT22;10380;52.102;20.614;2023-12-28T00:16:55;1.30;99.90
20442;DHT22;10380;52.102;20.614;2023-12-28T00:19:22;1.30;99.90
20442;DHT22;10380;52.102;20.614;2023-12-28T00:21:49;1.30;99.90
20442;DHT22;10380;52.102;20.614;2023-12-28T00:24:16;1.30;99.90
20442;DHT22;10380;52.102;20.614;2023-12-28T00:26:43;1.30;99.90
20442;DHT22;10380;52.102;20.614;2023-12-28T00:29:10;1.30;99.90
20442;DHT22;10380;52.102;20.614;2023-12-28T00:31:37;1.30;99.90
20442;DHT22;10380;52.102;20.614;2023-12-28T00:34:05;1.20;99.90
20442;DHT22;10380;52.102;20.614;2023-12-28T00:36:32;1.30;99.90
20442;DHT22;10380;52.102;20.614;2023-12-28T00:38:59;1.30;99.90
20442;DHT22;10380;52.102;20.614;2023-12-28T00:41:26;1.30;99.90
20442;DHT22;10380;52.102;20.614;2023-12-28T00:43:53;1.30;99.90
20442;DHT22;10380;52.102;20.614;2023-12-28T00:46:19;1.30;99.90
20442;DHT22;10380;52.102;20.614;2023-12-28T00:48:46;1.30;99.90
20442;DHT22;10380;52.102;20.614;2023-12-28T00:51:14;1.40;99.90
20442;DHT22;10380;52.102;20.614;2023-12-28T00:53:41;1.30;99.90
20442;DHT22;10380;52.102;20.614;2023-12-28T00:56:09;1.30;99.90
20442;DHT22;10380;52.102;20.614;2023-12-28T00:58:40;1.40;99.90
20442;DHT22;10380;52.102;20.614;2023-12-28T01:01:08;1.30;99.90
20442;DHT22;10380;52.102;20.614;2023-12-28T01:03:35;1.80;99.90
20442;DHT22;10380;52.102;20.614;2023-12-28T01:06:04;1.40;99.90
20442;DHT22;10380;52.102;20.614;2023-12-28T01:08:31;1.40;99.90
20442;DHT22;10380;52.102;20.614;2023-12-28T01:11:01;1.30;99.90
20442;DHT22;10380;52.102;20.614;2023-12-28T01:13:28;1.30;99.90
20442;DHT22;10380;52.102;20.614;2023-12-28T01:15:55;1.30;99.90
20442;DHT22;10380;52.102;20.614;2023-12-28T01:18:22;1.30;99.90
20442;DHT22;10380;52.102;20.614;2023-12-28T01:20:49;1.30;99.90
20442;DHT22;10380;52.102;20.614;2023-12-28T01:23:16;1.30;99.90
20442;DHT22;10380;52.102;20.614;2023-12-28T01:25:43;1.30;99.90
20442;DHT22;10380;52.102;20.614;2023-12-28T01:28:10;1.30;99.90
20442;DHT22;10380;52.102;20.614;2023-12-28T01:30:36;1.30;99.90
20442;DHT22;10380;52.102;20.614;2023-12-28T01:33:04;1.30;99.90
20442;DHT22;10380;52.102;20.614;2023-12-28T01:35:31;1.30;99.90
20442;DHT22;10380;52.102;20.614;2023-12-28T01:37:58;1.30;99.90
20442;DHT22;10380;52.102;20.614;2023-12-28T01:40:27;1.30;99.90
20442;DHT22;10380;52.102;20.614;2023-12-28T01:42:54;1.20;99.90
20442;DHT22;10380;52.102;20.614;2023-12-28T01:45:21;1.30;99.90
20442;DHT22;10380;52.102;20.614;2023-12-28T01:47:50;1.30;99.90
20442;DHT22;10380;52.102;20.614;2023-12-28T01:50:19;1.20;99.90
20442;DHT22;10380;52.102;20.614;2023-12-28T01:52:47;1.20;99.90
20442;DHT22;10380;52.102;20.614;2023-12-28T01:55:15;1.20;99.90
20442;DHT22;10380;52.102;20.614;2023-12-28T01:57:43;1.20;99.90
20442;DHT22;10380;52.102;20.614;2023-12-28T02:00:11;1.20;99.90
20442;DHT22;10380;52.102;20.614;2023-12-28T02:02:39;1.20;99.90
20442;DHT22;10380;52.102;20.614;2023-12-28T02:05:09;1.20;99.90
20442;DHT22;10380;52.102;20.614;2023-12-28T02:07:37;1.20;99.90
20442;DHT22;10380;52.102;20.614;2023-12-28T02:10:04;1.20;99.90
20442;DHT22;10380;52.102;20.614;2023-12-28T02:12:32;1.20;99.90
20442;DHT22;10380;52.102;20.614;2023-12-28T02:14:59;1.30;99.90
20442;DHT22;10380;52.102;20.614;2023-12-28T02:17:42;1.20;99.90
20442;DHT22;10380;52.102;20.614;2023-12-28T02:20:11;1.30;99.90
20442;DHT22;10380;52.102;20.614;2023-12-28T02:22:39;1.30;99.90
20442;DHT22;10380;52.102;20.614;2023-12-28T02:25:13;1.30;99.90
20442;DHT22;10380;52.102;20.614;2023-12-28T02:27:44;1.30;99.90
20442;DHT22;10380;52.102;20.614;2023-12-28T02:30:15;1.40;99.90
20442;DHT22;10380;52.102;20.614;2023-12-28T02:33:00;1.40;99.90
20442;DHT22;10380;52.102;20.614;2023-12-28T02:35:42;1.40;99.90
20442;DHT22;10380;52.102;20.614;2023-12-28T02:38:12;1.40;99.90
20442;DHT22;10380;52.102;20.614;2023-12-28T02:40:44;1.50;99.90
20442;DHT22;10380;52.102;20.614;2023-12-28T02:43:12;1.50;99.90
20442;DHT22;10380;52.102;20.614;2023-12-28T02:45:39;1.50;99.90
20442;DHT22;10380;52.102;20.614;2023-12-28T02:48:07;1.50;99.90
20442;DHT22;10380;52.102;20.614;2023-12-28T02:50:34;1.50;99.90
20442;DHT22;10380;52.102;20.614;2023-12-28T02:53:02;1.50;99.90
20442;DHT22;10380;52.102;20.614;2023-12-28T02:55:29;1.40;99.90
20442;DHT22;10380;52.102;20.614;2023-12-28T02:57:57;1.40;99.90
20442;DHT22;10380;52.102;20.614;2023-12-28T03:00:29;1.50;99.90
20442;DHT22;10380;52.102;20.614;2023-12-28T03:02:56;1.40;99.90
20442;DHT22;10380;52.102;20.614;2023-12-28T03:05:24;1.50;99.90
20442;DHT22;10380;52.102;20.614;2023-12-28T03:07:51;1.50;99.90
20442;DHT22;10380;52.102;20.614;2023-12-28T03:10:18;1.50;99.90
20442;DHT22;10380;52.102;20.614;2023-12-28T03:12:45;1.50;99.90
20442;DHT22;10380;52.102;20.614;2023-12-28T03:15:13;1.40;99.90
20442;DHT22;10380;52.102;20.614;2023-12-28T03:17:40;1.40;99.90
20442;DHT22;10380;52.102;20.614;2023-12-28T03:20:08;1.40;99.90
20442;DHT22;10380;52.102;20.614;2023-12-28T03:22:36;1.40;99.90
20442;DHT22;10380;52.102;20.614;2023-12-28T03:25:03;1.50;99.90
20442;DHT22;10380;52.102;20.614;2023-12-28T03:27:30;1.40;99.90
20442;DHT22;10380;52.102;20.614;2023-12-28T03:29:57;1.40;99.90
20442;DHT22;10380;52.102;20.614;2023-12-28T03:32:23;1.40;99.90
20442;DHT22;10380;52.102;20.614;2023-12-28T03:34:50;1.40;99.90
20442;DHT22;10380;52.102;20.614;2023-12-28T03:37:17;1.40;99.90
20442;DHT22;10380;52.102;20.614;2023-12-28T03:39:44;1.50;99.90
20442;DHT22;10380;52.102;20.614;2023-12-28T03:42:13;1.50;99.90
20442;DHT22;10380;52.102;20.614;2023-12-28T03:44:40;1.50;99.90
20442;DHT22;10380;52.102;20.614;2023-12-28T03:47:07;1.50;99.90
20442;DHT22;10380;52.102;20.614;2023-12-28T03:49:34;1.50;99.90
20442;DHT22;10380;52.102;20.614;2023-12-28T03:52:01;1.50;99.90
20442;DHT22;10380;52.102;20.614;2023-12-28T03:54:29;1.50;99.90
20442;DHT22;10380;52.102;20.614;2023-12-28T03:56:56;1.60;99.90
20442;DHT22;10380;52.102;20.614;2023-12-28T03:59:24;1.60;99.90
20442;DHT22;10380;52.102;20.614;2023-12-28T04:01:51;1.60;99.90
20442;DHT22;10380;52.102;20.614;2023-12-28T04:04:17;2.40;99.90
20442;DHT22;10380;52.102;20.614;2023-12-28T04:06:44;1.60;99.90
20442;DHT22;10380;52.102;20.614;2023-12-28T04:09:12;1.70;99.90
20442;DHT22;10380;52.102;20.614;2023-12-28T04:11:39;1.70;99.90
20442;DHT22;10380;52.102;20.614;2023-12-28T04:14:07;1.80;99.90
20442;DHT22;10380;52.102;20.614;2023-12-28T04:16:34;1.80;99.90
20442;DHT22;10380;52.102;20.614;2023-12-28T04:19:01;1.80;99.90
20442;DHT22;10380;52.102;20.614;2023-12-28T04:21:29;1.90;99.90
20442;DHT22;10380;52.102;20.614;2023-12-28T04:23:56;1.90;99.90
20442;DHT22;10380;52.102;20.614;2023-12-28T04:26:23;1.90;99.90
20442;DHT22;10380;52.102;20.614;2023-12-28T04:28:50;2.00;99.90
20442;DHT22;10380;52.102;20.614;2023-12-28T04:31:16;2.00;99.90
20442;DHT22;10380;52.102;20.614;2023-12-28T04:33:43;2.00;99.90
20442;DHT22;10380;52.102;20.614;2023-12-28T04:36:10;2.00;99.90
20442;DHT22;10380;52.102;20.614;2023-12-28T04:38:37;2.10;99.90
20442;DHT22;10380;52.102;20.614;2023-12-28T04:41:06;2.10;99.90
20442;DHT22;10380;52.102;20.614;2023-12-28T04:43:32;2.10;99.90
20442;DHT22;10380;52.102;20.614;2023-12-28T04:46:03;2.10;99.90
20442;DHT22;10380;52.102;20.614;2023-12-28T04:48:31;2.10;99.90
20442;DHT22;10380;52.102;20.614;2023-12-28T04:51:02;2.10;99.90
20442;DHT22;10380;52.102;20.614;2023-12-28T04:53:29;2.20;99.90
20442;DHT22;10380;52.102;20.614;2023-12-28T04:55:56;2.20;99.90
20442;DHT22;10380;52.102;20.614;2023-12-28T04:58:23;2.20;99.90
20442;DHT22;10380;52.102;20.614;2023-12-28T05:00:50;2.20;99.90
20442;DHT22;10380;52.102;20.614;2023-12-28T05:03:18;2.30;99.90
20442;DHT22;10380;52.102;20.614;2023-12-28T05:05:45;2.30;99.90
20442;DHT22;10380;52.102;20.614;2023-12-28T05:08:12;2.30;99.90
20442;DHT22;10380;52.102;20.614;2023-12-28T05:10:39;2.30;99.90
20442;DHT22;10380;52.102;20.614;2023-12-28T05:13:06;2.40;99.90
20442;DHT22;10380;52.102;20.614;2023-12-28T05:15:33;2.40;99.90
20442;DHT22;10380;52.102;20.614;2023-12-28T05:18:00;2.50;99.90
20442;DHT22;10380;52.102;20.614;2023-12-28T05:20:27;2.50;99.90
20442;DHT22;10380;52.102;20.614;2023-12-28T05:22:55;2.50;99.90
20442;DHT22;10380;52.102;20.614;2023-12-28T05:25:21;2.50;99.90
20442;DHT22;10380;52.102;20.614;2023-12-28T05:27:48;2.60;99.90
20442;DHT22;10380;52.102;20.614;2023-12-28T05:30:15;2.60;99.90
20442;DHT22;10380;52.102;20.614;2023-12-28T05:32:42;2.60;99.90
20442;DHT22;10380;52.102;20.614;2023-12-28T05:35:09;2.60;99.90
20442;DHT22;10380;52.102;20.614;2023-12-28T05:37:36;2.60;99.90
20442;DHT22;10380;52.102;20.614;2023-12-28T05:40:03;2.60;99.90
20442;DHT22;10380;52.102;20.614;2023-12-28T05:42:30;2.60;99.90
20442;DHT22;10380;52.102;20.614;2023-12-28T05:44:57;2.70;99.90
20442;DHT22;10380;52.102;20.614;2023-12-28T05:47:24;2.70;99.90
20442;DHT22;10380;52.102;20.614;2023-12-28T05:49:51;2.70;99.90
20442;DHT22;10380;52.102;20.614;2023-12-28T05:52:19;2.70;99.90
20442;DHT22;10380;52.102;20.614;2023-12-28T05:54:46;2.70;99.90
20442;DHT22;10380;52.102;20.614;2023-12-28T05:57:15;2.80;99.90
20442;DHT22;10380;52.102;20.614;2023-12-28T05:59:42;2.70;99.90
20442;DHT22;10380;52.102;20.614;2023-12-28T06:02:09;2.80;99.90
20442;DHT22;10380;52.102;20.614;2023-12-28T06:04:36;2.80;99.90
20442;DHT22;10380;52.102;20.614;2023-12-28T06:07:04;2.80;99.90
20442;DHT22;10380;52.102;20.614;2023-12-28T06:09:32;2.80;99.90
20442;DHT22;10380;52.102;20.614;2023-12-28T06:11:59;2.80;99.90
20442;DHT22;10380;52.102;20.614;2023-12-28T06:14:26;2.80;99.90
20442;DHT22;10380;52.102;20.614;2023-12-28T06:16:53;2.80;99.90
20442;DHT22;10380;52.102;20.614;2023-12-28T06:19:20;2.80;99.90
20442;DHT22;10380;52.102;20.614;2023-12-28T06:21:49;2.80;99.90
20442;DHT22;10380;52.102;20.614;2023-12-28T06:24:16;2.80;99.90
20442;DHT22;10380;52.102;20.614;2023-12-28T06:26:44;2.90;99.90
20442;DHT22;10380;52.102;20.614;2023-12-28T06:29:12;2.90;99.90
20442;DHT22;10380;52.102;20.614;2023-12-28T06:31:39;2.90;99.90
20442;DHT22;10380;52.102;20.614;2023-12-28T06:34:07;3.00;99.90
20442;DHT22;10380;52.102;20.614;2023-12-28T06:36:34;3.00;99.90
20442;DHT22;10380;52.102;20.614;2023-12-28T06:39:02;3.00;99.90
20442;DHT22;10380;52.102;20.614;2023-12-28T06:41:29;3.00;99.90
20442;DHT22;10380;52.102;20.614;2023-12-28T06:43:56;3.10;99.90
20442;DHT22;10380;52.102;20.614;2023-12-28T06:46:23;3.10;99.90
20442;DHT22;10380;52.102;20.614;2023-12-28T06:48:50;3.20;99.90
20442;DHT22;10380;52.102;20.614;2023-12-28T06:51:18;3.30;99.90
20442;DHT22;10380;52.102;20.614;2023-12-28T06:53:46;3.30;99.90
20442;DHT22;10380;52.102;20.614;2023-12-28T06:56:13;3.40;99.90
20442;DHT22;10380;52.102;20.614;2023-12-28T06:58:40;3.50;99.90
20442;DHT22;10380;52.102;20.614;2023-12-28T07:01:07;3.50;99.90
20442;DHT22;10380;52.102;20.614;2023-12-28T07:03:34;3.60;99.90
20442;DHT22;10380;52.102;20.614;2023-12-28T07:06:02;3.60;99.90
20442;DHT22;10380;52.102;20.614;2023-12-28T07:08:29;3.70;99.90
20442;DHT22;10380;52.102;20.614;2023-12-28T07:11:02;3.80;99.90
20442;DHT22;10380;52.102;20.614;2023-12-28T07:13:29;3.80;99.90
20442;DHT22;10380;52.102;20.614;2023-12-28T07:15:56;3.80;99.90
20442;DHT22;10380;52.102;20.614;2023-12-28T07:18:25;3.90;99.90
20442;DHT22;10380;52.102;20.614;2023-12-28T07:20:53;4.00;99.90
20442;DHT22;10380;52.102;20.614;2023-12-28T07:23:20;4.00;99.90
20442;DHT22;10380;52.102;20.614;2023-12-28T07:25:47;4.00;99.90
20442;DHT22;10380;52.102;20.614;2023-12-28T07:28:14;4.10;99.90
20442;DHT22;10380;52.102;20.614;2023-12-28T07:30:41;4.10;99.90
20442;DHT22;10380;52.102;20.614;2023-12-28T07:33:08;4.00;99.90
20442;DHT22;10380;52.102;20.614;2023-12-28T07:35:36;4.10;99.90
20442;DHT22;10380;52.102;20.614;2023-12-28T07:38:03;4.10;99.90
20442;DHT22;10380;52.102;20.614;2023-12-28T07:40:30;4.20;99.90
20442;DHT22;10380;52.102;20.614;2023-12-28T07:42:57;4.20;99.90
20442;DHT22;10380;52.102;20.614;2023-12-28T07:45:24;4.20;99.90
20442;DHT22;10380;52.102;20.614;2023-12-28T07:47:52;4.30;99.90
20442;DHT22;10380;52.102;20.614;2023-12-28T07:50:19;4.40;99.90
20442;DHT22;10380;52.102;20.614;2023-12-28T07:52:47;4.50;99.90
20442;DHT22;10380;52.102;20.614;2023-12-28T07:55:15;4.60;99.90
20442;DHT22;10380;52.102;20.614;2023-12-28T07:57:43;4.70;99.90
20442;DHT22;10380;52.102;20.614;2023-12-28T08:00:10;4.80;99.90
20442;DHT22;10380;52.102;20.614;2023-12-28T08:02:37;4.90;99.90
20442;DHT22;10380;52.102;20.614;2023-12-28T08:05:05;4.90;99.90
20442;DHT22;10380;52.102;20.614;2023-12-28T08:07:32;5.00;99.90
20442;DHT22;10380;52.102;20.614;2023-12-28T08:09:59;5.10;99.90
20442;DHT22;10380;52.102;20.614;2023-12-28T08:12:26;5.20;99.90
20442;DHT22;10380;52.102;20.614;2023-12-28T08:14:55;5.30;99.90
20442;DHT22;10380;52.102;20.614;2023-12-28T08:17:22;5.30;99.90
20442;DHT22;10380;52.102;20.614;2023-12-28T08:19:49;5.40;99.90
20442;DHT22;10380;52.102;20.614;2023-12-28T08:22:17;5.50;99.90
20442;DHT22;10380;52.102;20.614;2023-12-28T08:24:43;5.60;99.90
20442;DHT22;10380;52.102;20.614;2023-12-28T08:27:11;5.60;99.90
20442;DHT22;10380;52.102;20.614;2023-12-28T08:29:40;5.70;99.90
20442;DHT22;10380;52.102;20.614;2023-12-28T08:32:08;5.80;99.90
20442;DHT22;10380;52.102;20.614;2023-12-28T08:34:35;5.90;99.90
20442;DHT22;10380;52.102;20.614;2023-12-28T08:37:02;6.20;99.90
20442;DHT22;10380;52.102;20.614;2023-12-28T08:39:29;6.00;99.90
20442;DHT22;10380;52.102;20.614;2023-12-28T08:41:56;6.00;99.90
20442;DHT22;10380;52.102;20.614;2023-12-28T08:44:23;6.10;99.90
20442;DHT22;10380;52.102;20.614;2023-12-28T08:46:50;6.00;99.90
20442;DHT22;10380;52.102;20.614;2023-12-28T08:49:17;6.20;99.90
20442;DHT22;10380;52.102;20.614;2023-12-28T08:51:44;6.20;99.90
20442;DHT22;10380;52.102;20.614;2023-12-28T08:54:11;6.30;99.90
20442;DHT22;10380;52.102;20.614;2023-12-28T08:56:38;6.30;99.90
20442;DHT22;10380;52.102;20.614;2023-12-28T08:59:06;6.40;99.90
20442;DHT22;10380;52.102;20.614;2023-12-28T09:01:32;6.50;99.90
20442;DHT22;10380;52.102;20.614;2023-12-28T09:04:00;6.50;99.90
20442;DHT22;10380;52.102;20.614;2023-12-28T09:06:28;6.60;99.90
20442;DHT22;10380;52.102;20.614;2023-12-28T09:08:55;6.70;99.90
20442;DHT22;10380;52.102;20.614;2023-12-28T09:11:22;6.00;99.90
20442;DHT22;10380;52.102;20.614;2023-12-28T09:13:49;6.80;99.90
20442;DHT22;10380;52.102;20.614;2023-12-28T09:16:16;6.90;99.90
20442;DHT22;10380;52.102;20.614;2023-12-28T09:18:43;7.00;99.90
20442;DHT22;10380;52.102;20.614;2023-12-28T09:21:10;7.10;99.90
20442;DHT22;10380;52.102;20.614;2023-12-28T09:23:37;7.10;99.90
20442;DHT22;10380;52.102;20.614;2023-12-28T09:26:05;7.20;99.90
20442;DHT22;10380;52.102;20.614;2023-12-28T09:28:33;7.20;99.90
20442;DHT22;10380;52.102;20.614;2023-12-28T09:31:02;7.30;99.90
20442;DHT22;10380;52.102;20.614;2023-12-28T09:33:29;7.30;99.90
20442;DHT22;10380;52.102;20.614;2023-12-28T09:35:57;7.30;99.90
20442;DHT22;10380;52.102;20.614;2023-12-28T09:38:24;7.30;99.90
20442;DHT22;10380;52.102;20.614;2023-12-28T09:40:54;7.30;99.90
20442;DHT22;10380;52.102;20.614;2023-12-28T09:43:26;7.20;99.90
20442;DHT22;10380;52.102;20.614;2023-12-28T09:45:56;7.10;99.90
20442;DHT22;10380;52.102;20.614;2023-12-28T09:48:23;7.20;99.90
20442;DHT22;10380;52.102;20.614;2023-12-28T09:50:52;7.10;99.90
20442;DHT22;10380;52.102;20.614;2023-12-28T09:53:26;7.10;99.90
20442;DHT22;10380;52.102;20.614;2023-12-28T09:55:53;7.10;99.90
20442;DHT22;10380;52.102;20.614;2023-12-28T09:58:21;7.10;99.90
20442;DHT22;10380;52.102;20.614;2023-12-28T10:00:50;7.20;99.90
20442;DHT22;10380;52.102;20.614;2023-12-28T10:03:17;7.20;99.90
20442;DHT22;10380;52.102;20.614;2023-12-28T10:05:46;7.30;99.90
20442;DHT22;10380;52.102;20.614;2023-12-28T10:08:15;7.40;99.90
20442;DHT22;10380;52.102;20.614;2023-12-28T10:10:43;7.40;99.90
20442;DHT22;10380;52.102;20.614;2023-12-28T10:13:13;7.50;99.90
20442;DHT22;10380;52.102;20.614;2023-12-28T10:15:43;7.50;99.90
20442;DHT22;10380;52.102;20.614;2023-12-28T10:18:13;7.60;99.90
20442;DHT22;10380;52.102;20.614;2023-12-28T10:20:40;7.60;99.90
20442;DHT22;10380;52.102;20.614;2023-12-28T10:23:07;7.60;99.90
20442;DHT22;10380;52.102;20.614;2023-12-28T10:25:34;7.60;99.90
20442;DHT22;10380;52.102;20.614;2023-12-28T10:28:05;7.60;99.90
20442;DHT22;10380;52.102;20.614;2023-12-28T10:30:34;7.60;99.90
20442;DHT22;10380;52.102;20.614;2023-12-28T10:33:05;7.50;99.90
20442;DHT22;10380;52.102;20.614;2023-12-28T10:35:33;7.50;99.90
20442;DHT22;10380;52.102;20.614;2023-12-28T10:38:01;7.50;99.90
20442;DHT22;10380;52.102;20.614;2023-12-28T10:40:30;7.40;99.90
20442;DHT22;10380;52.102;20.614;2023-12-28T10:43:06;7.40;99.90
20442;DHT22;10380;52.102;20.614;2023-12-28T10:45:34;7.40;99.90
20442;DHT22;10380;52.102;20.614;2023-12-28T10:48:12;7.50;99.90
20442;DHT22;10380;52.102;20.614;2023-12-28T10:50:40;7.50;99.90
20442;DHT22;10380;52.102;20.614;2023-12-28T10:53:47;7.50;99.90
20442;DHT22;10380;52.102;20.614;2023-12-28T10:58:52;7.60;99.90
20442;DHT22;10380;52.102;20.614;2023-12-28T11:01:32;7.50;99.90
20442;DHT22;10380;52.102;20.614;2023-12-28T11:04:23;7.60;99.90
20442;DHT22;10380;52.102;20.614;2023-12-28T11:06:52;7.60;99.90
20442;DHT22;10380;52.102;20.614;2023-12-28T11:09:20;7.60;99.90
20442;DHT22;10380;52.102;20.614;2023-12-28T11:11:49;7.60;99.90
20442;DHT22;10380;52.102;20.614;2023-12-28T11:14:18;7.50;99.90
20442;DHT22;10380;52.102;20.614;2023-12-28T11:16:45;7.50;99.90
20442;DHT22;10380;52.102;20.614;2023-12-28T11:19:13;7.40;99.90
20442;DHT22;10380;52.102;20.614;2023-12-28T11:21:40;7.40;99.90
20442;DHT22;10380;52.102;20.614;2023-12-28T11:24:08;7.30;99.90
20442;DHT22;10380;52.102;20.614;2023-12-28T11:26:35;7.30;99.90
20442;DHT22;10380;52.102;20.614;2023-12-28T11:29:03;7.20;99.90
20442;DHT22;10380;52.102;20.614;2023-12-28T11:31:34;7.20;99.90
20442;DHT22;10380;52.102;20.614;2023-12-28T11:34:04;7.20;99.90
20442;DHT22;10380;52.102;20.614;2023-12-28T11:36:37;7.10;99.90
20442;DHT22;10380;52.102;20.614;2023-12-28T11:39:07;7.00;99.90
20442;DHT22;10380;52.102;20.614;2023-12-28T11:41:36;7.00;99.90
20442;DHT22;10380;52.102;20.614;2023-12-28T11:44:03;7.00;99.90
20442;DHT22;10380;52.102;20.614;2023-12-28T11:46:35;7.00;99.90
20442;DHT22;10380;52.102;20.614;2023-12-28T11:49:07;7.00;99.90
20442;DHT22;10380;52.102;20.614;2023-12-28T11:51:38;7.00;99.90
20442;DHT22;10380;52.102;20.614;2023-12-28T11:54:06;7.00;99.90
20442;DHT22;10380;52.102;20.614;2023-12-28T11:56:33;7.10;99.90
20442;DHT22;10380;52.102;20.614;2023-12-28T11:59:01;7.10;99.90
20442;DHT22;10380;52.102;20.614;2023-12-28T12:01:27;7.10;99.90
20442;DHT22;10380;52.102;20.614;2023-12-28T12:03:55;7.20;99.90
20442;DHT22;10380;52.102;20.614;2023-12-28T12:06:22;7.20;99.90
20442;DHT22;10380;52.102;20.614;2023-12-28T12:08:50;7.30;99.90
20442;DHT22;10380;52.102;20.614;2023-12-28T12:11:17;7.30;99.90
20442;DHT22;10380;52.102;20.614;2023-12-28T12:13:45;7.30;99.90
20442;DHT22;10380;52.102;20.614;2023-12-28T12:16:16;7.40;99.90
20442;DHT22;10380;52.102;20.614;2023-12-28T12:18:43;7.40;99.90
20442;DHT22;10380;52.102;20.614;2023-12-28T12:21:11;7.50;99.90
20442;DHT22;10380;52.102;20.614;2023-12-28T12:23:39;7.50;99.90
20442;DHT22;10380;52.102;20.614;2023-12-28T12:26:07;7.60;99.90
20442;DHT22;10380;52.102;20.614;2023-12-28T12:28:34;7.60;99.90
20442;DHT22;10380;52.102;20.614;2023-12-28T12:31:02;7.60;99.90
20442;DHT22;10380;52.102;20.614;2023-12-28T12:33:31;7.70;99.90
20442;DHT22;10380;52.102;20.614;2023-12-28T12:36:00;7.70;99.90
20442;DHT22;10380;52.102;20.614;2023-12-28T12:38:27;7.70;99.90
20442;DHT22;10380;52.102;20.614;2023-12-28T12:40:53;7.80;99.90
20442;DHT22;10380;52.102;20.614;2023-12-28T12:43:20;7.80;99.90
20442;DHT22;10380;52.102;20.614;2023-12-28T12:45:47;7.90;99.90
20442;DHT22;10380;52.102;20.614;2023-12-28T12:48:15;7.90;99.90
20442;DHT22;10380;52.102;20.614;2023-12-28T12:50:43;7.90;99.90
20442;DHT22;10380;52.102;20.614;2023-12-28T12:53:10;8.00;99.90
20442;DHT22;10380;52.102;20.614;2023-12-28T12:55:37;8.00;99.90
20442;DHT22;10380;52.102;20.614;2023-12-28T12:58:12;8.00;99.90
20442;DHT22;10380;52.102;20.614;2023-12-28T13:00:45;8.00;99.90
20442;DHT22;10380;52.102;20.614;2023-12-28T13:03:13;8.10;99.90
20442;DHT22;10380;52.102;20.614;2023-12-28T13:05:41;8.10;99.90
20442;DHT22;10380;52.102;20.614;2023-12-28T13:08:10;8.10;99.90
20442;DHT22;10380;52.102;20.614;2023-12-28T13:10:37;8.10;99.90
20442;DHT22;10380;52.102;20.614;2023-12-28T13:13:07;8.20;99.90
20442;DHT22;10380;52.102;20.614;2023-12-28T13:15:34;8.20;99.90
20442;DHT22;10380;52.102;20.614;2023-12-28T13:18:01;8.20;99.90
20442;DHT22;10380;52.102;20.614;2023-12-28T13:20:28;8.30;99.90
20442;DHT22;10380;52.102;20.614;2023-12-28T13:22:55;8.30;99.90
20442;DHT22;10380;52.102;20.614;2023-12-28T13:25:24;8.30;99.90
20442;DHT22;10380;52.102;20.614;2023-12-28T13:27:51;8.40;99.90
20442;DHT22;10380;52.102;20.614;2023-12-28T13:30:17;8.40;99.90
20442;DHT22;10380;52.102;20.614;2023-12-28T13:32:45;8.40;99.90
20442;DHT22;10380;52.102;20.614;2023-12-28T13:35:12;8.40;99.90
20442;DHT22;10380;52.102;20.614;2023-12-28T13:37:39;8.50;99.90
20442;DHT22;10380;52.102;20.614;2023-12-28T13:40:06;8.40;99.90
20442;DHT22;10380;52.102;20.614;2023-12-28T13:42:33;8.40;99.90
20442;DHT22;10380;52.102;20.614;2023-12-28T13:45:00;8.50;99.90
20442;DHT22;10380;52.102;20.614;2023-12-28T13:47:27;8.40;99.90
20442;DHT22;10380;52.102;20.614;2023-12-28T13:49:54;8.40;99.90
20442;DHT22;10380;52.102;20.614;2023-12-28T13:52:22;8.40;99.90
20442;DHT22;10380;52.102;20.614;2023-12-28T13:54:49;8.40;99.90
20442;DHT22;10380;52.102;20.614;2023-12-28T13:57:16;8.50;99.90
20442;DHT22;10380;52.102;20.614;2023-12-28T13:59:43;8.40;99.90
20442;DHT22;10380;52.102;20.614;2023-12-28T14:02:10;8.40;99.90
20442;DHT22;10380;52.102;20.614;2023-12-28T14:04:37;8.40;99.90
20442;DHT22;10380;52.102;20.614;2023-12-28T14:07:04;8.40;99.90
20442;DHT22;10380;52.102;20.614;2023-12-28T14:09:31;8.40;99.90
20442;DHT22;10380;52.102;20.614;2023-12-28T14:11:59;8.30;99.90
20442;DHT22;10380;52.102;20.614;2023-12-28T14:14:26;8.30;99.90
20442;DHT22;10380;52.102;20.614;2023-12-28T14:16:53;8.40;99.90
20442;DHT22;10380;52.102;20.614;2023-12-28T14:19:20;8.40;99.90
20442;DHT22;10380;52.102;20.614;2023-12-28T14:21:47;8.30;99.90
20442;DHT22;10380;52.102;20.614;2023-12-28T14:24:14;8.30;99.90
20442;DHT22;10380;52.102;20.614;2023-12-28T14:26:42;8.30;99.90
20442;DHT22;10380;52.102;20.614;2023-12-28T14:29:10;8.30;99.90
20442;DHT22;10380;52.102;20.614;2023-12-28T14:31:37;8.30;99.90
20442;DHT22;10380;52.102;20.614;2023-12-28T14:34:04;8.20;99.90
20442;DHT22;10380;52.102;20.614;2023-12-28T14:36:36;8.20;99.90
20442;DHT22;10380;52.102;20.614;2023-12-28T14:39:06;8.10;99.90
20442;DHT22;10380;52.102;20.614;2023-12-28T14:41:34;8.10;99.90
20442;DHT22;10380;52.102;20.614;2023-12-28T14:44:02;8.10;99.90
20442;DHT22;10380;52.102;20.614;2023-12-28T14:46:29;8.10;99.90
20442;DHT22;10380;52.102;20.614;2023-12-28T14:48:56;8.00;99.90
20442;DHT22;10380;52.102;20.614;2023-12-28T14:51:23;8.00;99.90
20442;DHT22;10380;52.102;20.614;2023-12-28T14:53:51;8.00;99.90
20442;DHT22;10380;52.102;20.614;2023-12-28T14:56:18;8.00;99.90
20442;DHT22;10380;52.102;20.614;2023-12-28T14:58:45;7.90;99.90
20442;DHT22;10380;52.102;20.614;2023-12-28T15:01:14;7.90;99.90
20442;DHT22;10380;52.102;20.614;2023-12-28T15:03:43;7.80;99.90
20442;DHT22;10380;52.102;20.614;2023-12-28T15:06:10;7.80;99.90
20442;DHT22;10380;52.102;20.614;2023-12-28T15:08:37;7.80;99.90
20442;DHT22;10380;52.102;20.614;2023-12-28T15:11:05;7.80;99.90
20442;DHT22;10380;52.102;20.614;2023-12-28T15:13:34;7.70;99.90
20442;DHT22;10380;52.102;20.614;2023-12-28T15:16:01;7.70;99.90
20442;DHT22;10380;52.102;20.614;2023-12-28T15:18:31;7.70;99.90
20442;DHT22;10380;52.102;20.614;2023-12-28T15:20:58;7.60;99.90
20442;DHT22;10380;52.102;20.614;2023-12-28T15:23:26;7.60;99.90
20442;DHT22;10380;52.102;20.614;2023-12-28T15:25:54;7.60;99.90
20442;DHT22;10380;52.102;20.614;2023-12-28T15:28:21;7.60;99.90
20442;DHT22;10380;52.102;20.614;2023-12-28T15:30:48;7.50;99.90
20442;DHT22;10380;52.102;20.614;2023-12-28T15:33:15;7.50;99.90
20442;DHT22;10380;52.102;20.614;2023-12-28T15:35:42;7.50;99.90
20442;DHT22;10380;52.102;20.614;2023-12-28T15:38:09;7.40;99.90